sensor_id;sensor_type;location;lat;lon;timestamp;P1;durP1;ratioP1;P2;durP2;ratioP2
8708;SDS011;4391;48.678;9.280;2023-04-06T00:00:44;12.83;;;5.43;;
8708;SDS011;4391;48.678;9.280;2023-04-06T00:03:11;13.82;;;5.68;;
8708;SDS011;4391;48.678;9.280;2023-04-06T00:05:38;11.90;;;5.68;;
8708;SDS011;4391;48.678;9.280;2023-04-06T00:08:05;11.05;;;5.43;;
8708;SDS011;4391;48.678;9.280;2023-04-06T00:10:32;13.57;;;5.45;;
8708;SDS011;4391;48.678;9.280;2023-04-06T00:13:00;13.67;;;6.30;;
8708;SDS011;4391;48.678;9.280;2023-04-06T00:15:27;11.52;;;5.93;;
8708;SDS011;4391;48.678;9.280;2023-04-06T00:17:55;11.73;;;5.65;;
8708;SDS011;4391;48.678;9.280;2023-04-06T00:20:22;12.27;;;5.85;;
8708;SDS011;4391;48.678;9.280;2023-04-06T00:22:50;13.23;;;5.82;;
8708;SDS011;4391;48.678;9.280;2023-04-06T00:25:17;16.07;;;6.40;;
8708;SDS011;4391;48.678;9.280;2023-04-06T00:27:44;13.68;;;6.30;;
8708;SDS011;4391;48.678;9.280;2023-04-06T00:30:12;13.30;;;6.10;;
8708;SDS011;4391;48.678;9.280;2023-04-06T00:32:39;13.13;;;6.65;;
8708;SDS011;4391;48.678;9.280;2023-04-06T00:35:06;13.73;;;6.35;;
8708;SDS011;4391;48.678;9.280;2023-04-06T00:37:33;11.37;;;6.03;;
8708;SDS011;4391;48.678;9.280;2023-04-06T00:40:00;13.60;;;6.13;;
8708;SDS011;4391;48.678;9.280;2023-04-06T00:42:28;17.45;;;5.68;;
8708;SDS011;4391;48.678;9.280;2023-04-06T00:44:56;12.18;;;5.93;;
8708;SDS011;4391;48.678;9.280;2023-04-06T00:47:25;13.55;;;6.47;;
8708;SDS011;4391;48.678;9.280;2023-04-06T00:49:52;14.77;;;5.70;;
8708;SDS011;4391;48.678;9.280;2023-04-06T00:52:20;12.65;;;6.03;;
8708;SDS011;4391;48.678;9.280;2023-04-06T00:54:48;16.90;;;6.07;;
8708;SDS011;4391;48.678;9.280;2023-04-06T00:57:15;12.05;;;6.07;;
8708;SDS011;4391;48.678;9.280;2023-04-06T00:59:42;13.52;;;5.68;;
8708;SDS011;4391;48.678;9.280;2023-04-06T01:02:10;14.93;;;6.63;;
8708;SDS011;4391;48.678;9.280;2023-04-06T01:04:38;16.05;;;6.95;;
8708;SDS011;4391;48.678;9.280;2023-04-06T01:07:05;10.85;;;5.90;;
8708;SDS011;4391;48.678;9.280;2023-04-06T01:09:32;14.55;;;5.55;;
8708;SDS011;4391;48.678;9.280;2023-04-06T01:11:59;12.43;;;5.78;;
8708;SDS011;4391;48.678;9.280;2023-04-06T01:14:26;13.80;;;6.20;;
8708;SDS011;4391;48.678;9.280;2023-04-06T01:16:53;13.23;;;5.72;;
8708;SDS011;4391;48.678;9.280;2023-04-06T01:19:21;15.93;;;5.90;;
8708;SDS011;4391;48.678;9.280;2023-04-06T01:21:50;15.27;;;6.35;;
8708;SDS011;4391;48.678;9.280;2023-04-06T01:24:19;13.05;;;6.22;;
8708;SDS011;4391;48.678;9.280;2023-04-06T01:26:46;13.30;;;6.70;;
8708;SDS011;4391;48.678;9.280;2023-04-06T01:29:13;14.15;;;6.90;;
8708;SDS011;4391;48.678;9.280;2023-04-06T01:31:40;16.13;;;6.63;;
8708;SDS011;4391;48.678;9.280;2023-04-06T01:34:07;14.45;;;6.28;;
8708;SDS011;4391;48.678;9.280;2023-04-06T01:36:34;12.63;;;5.47;;
8708;SDS011;4391;48.678;9.280;2023-04-06T01:39:01;14.43;;;6.50;;
8708;SDS011;4391;48.678;9.280;2023-04-06T01:41:29;14.02;;;6.00;;
8708;SDS011;4391;48.678;9.280;2023-04-06T01:43:56;14.50;;;6.38;;
8708;SDS011;4391;48.678;9.280;2023-04-06T01:46:23;13.38;;;6.47;;
8708;SDS011;4391;48.678;9.280;2023-04-06T01:48:50;11.60;;;6.13;;
8708;SDS011;4391;48.678;9.280;2023-04-06T01:51:17;13.90;;;6.43;;
8708;SDS011;4391;48.678;9.280;2023-04-06T01:53:43;14.07;;;6.07;;
8708;SDS011;4391;48.678;9.280;2023-04-06T01:56:10;13.52;;;5.80;;
8708;SDS011;4391;48.678;9.280;2023-04-06T01:58:38;13.50;;;5.28;;
8708;SDS011;4391;48.678;9.280;2023-04-06T02:01:05;13.45;;;6.00;;
8708;SDS011;4391;48.678;9.280;2023-04-06T02:03:32;13.97;;;6.37;;
8708;SDS011;4391;48.678;9.280;2023-04-06T02:05:59;16.73;;;6.82;;
8708;SDS011;4391;48.678;9.280;2023-04-06T02:08:26;11.98;;;6.05;;
8708;SDS011;4391;48.678;9.280;2023-04-06T02:10:53;14.32;;;6.20;;
8708;SDS011;4391;48.678;9.280;2023-04-06T02:13:20;16.35;;;6.50;;
8708;SDS011;4391;48.678;9.280;2023-04-06T02:15:48;13.90;;;5.93;;
8708;SDS011;4391;48.678;9.280;2023-04-06T02:18:15;12.27;;;5.43;;
8708;SDS011;4391;48.678;9.280;2023-04-06T02:20:43;12.93;;;5.80;;
8708;SDS011;4391;48.678;9.280;2023-04-06T02:23:10;12.50;;;5.80;;
8708;SDS011;4391;48.678;9.280;2023-04-06T02:25:37;12.73;;;5.80;;
8708;SDS011;4391;48.678;9.280;2023-04-06T02:28:05;14.50;;;6.00;;
8708;SDS011;4391;48.678;9.280;2023-04-06T02:30:32;12.88;;;6.18;;
8708;SDS011;4391;48.678;9.280;2023-04-06T02:33:00;16.58;;;6.72;;
8708;SDS011;4391;48.678;9.280;2023-04-06T02:35:27;13.45;;;6.18;;
8708;SDS011;4391;48.678;9.280;2023-04-06T02:37:55;11.95;;;5.85;;
8708;SDS011;4391;48.678;9.280;2023-04-06T02:40:21;16.27;;;6.20;;
8708;SDS011;4391;48.678;9.280;2023-04-06T02:42:49;14.20;;;6.20;;
8708;SDS011;4391;48.678;9.280;2023-04-06T02:45:15;13.05;;;6.22;;
8708;SDS011;4391;48.678;9.280;2023-04-06T02:47:42;14.40;;;6.50;;
8708;SDS011;4391;48.678;9.280;2023-04-06T02:50:11;18.05;;;6.40;;
8708;SDS011;4391;48.678;9.280;2023-04-06T02:52:38;13.77;;;6.37;;
8708;SDS011;4391;48.678;9.280;2023-04-06T02:55:05;14.85;;;7.05;;
8708;SDS011;4391;48.678;9.280;2023-04-06T02:57:32;13.32;;;6.50;;
8708;SDS011;4391;48.678;9.280;2023-04-06T02:59:59;15.27;;;6.47;;
8708;SDS011;4391;48.678;9.280;2023-04-06T03:02:26;17.77;;;6.50;;
8708;SDS011;4391;48.678;9.280;2023-04-06T03:04:53;14.60;;;6.33;;
8708;SDS011;4391;48.678;9.280;2023-04-06T03:07:21;13.48;;;6.50;;
8708;SDS011;4391;48.678;9.280;2023-04-06T03:09:48;15.05;;;6.82;;
8708;SDS011;4391;48.678;9.280;2023-04-06T03:12:15;14.32;;;6.32;;
8708;SDS011;4391;48.678;9.280;2023-04-06T03:14:42;16.73;;;6.25;;
8708;SDS011;4391;48.678;9.280;2023-04-06T03:17:09;15.40;;;6.47;;
8708;SDS011;4391;48.678;9.280;2023-04-06T03:19:36;15.65;;;6.95;;
8708;SDS011;4391;48.678;9.280;2023-04-06T03:22:03;15.60;;;6.03;;
8708;SDS011;4391;48.678;9.280;2023-04-06T03:24:31;13.00;;;6.18;;
8708;SDS011;4391;48.678;9.280;2023-04-06T03:26:58;12.30;;;6.15;;
8708;SDS011;4391;48.678;9.280;2023-04-06T03:29:26;17.10;;;6.03;;
8708;SDS011;4391;48.678;9.280;2023-04-06T03:31:53;12.65;;;5.60;;
8708;SDS011;4391;48.678;9.280;2023-04-06T03:34:20;16.58;;;6.75;;
8708;SDS011;4391;48.678;9.280;2023-04-06T03:36:47;14.77;;;6.50;;
8708;SDS011;4391;48.678;9.280;2023-04-06T03:39:14;16.65;;;6.82;;
8708;SDS011;4391;48.678;9.280;2023-04-06T03:41:42;17.03;;;6.80;;
8708;SDS011;4391;48.678;9.280;2023-04-06T03:44:09;16.33;;;6.10;;
8708;SDS011;4391;48.678;9.280;2023-04-06T03:46:36;13.32;;;6.28;;
8708;SDS011;4391;48.678;9.280;2023-04-06T03:49:03;12.45;;;6.28;;
8708;SDS011;4391;48.678;9.280;2023-04-06T03:51:30;15.40;;;6.85;;
8708;SDS011;4391;48.678;9.280;2023-04-06T03:53:56;16.67;;;6.40;;
8708;SDS011;4391;48.678;9.280;2023-04-06T03:56:23;16.17;;;6.32;;
8708;SDS011;4391;48.678;9.280;2023-04-06T03:58:52;15.70;;;6.43;;
8708;SDS011;4391;48.678;9.280;2023-04-06T04:01:19;14.13;;;6.95;;
8708;SDS011;4391;48.678;9.280;2023-04-06T04:03:46;14.45;;;6.10;;
8708;SDS011;4391;48.678;9.280;2023-04-06T04:06:14;12.33;;;6.53;;
8708;SDS011;4391;48.678;9.280;2023-04-06T04:08:41;13.43;;;6.43;;
8708;SDS011;4391;48.678;9.280;2023-04-06T04:11:08;14.00;;;6.60;;
8708;SDS011;4391;48.678;9.280;2023-04-06T04:13:35;14.80;;;6.18;;
8708;SDS011;4391;48.678;9.280;2023-04-06T04:16:03;15.63;;;5.60;;
8708;SDS011;4391;48.678;9.280;2023-04-06T04:18:30;11.97;;;5.57;;
8708;SDS011;4391;48.678;9.280;2023-04-06T04:20:57;14.57;;;6.07;;
8708;SDS011;4391;48.678;9.280;2023-04-06T04:23:25;11.43;;;4.80;;
8708;SDS011;4391;48.678;9.280;2023-04-06T04:25:52;11.75;;;6.10;;
8708;SDS011;4391;48.678;9.280;2023-04-06T04:28:19;15.68;;;6.97;;
8708;SDS011;4391;48.678;9.280;2023-04-06T04:30:45;17.03;;;7.87;;
8708;SDS011;4391;48.678;9.280;2023-04-06T04:33:14;15.57;;;7.15;;
8708;SDS011;4391;48.678;9.280;2023-04-06T04:35:41;17.45;;;7.60;;
8708;SDS011;4391;48.678;9.280;2023-04-06T04:38:07;15.02;;;7.63;;
8708;SDS011;4391;48.678;9.280;2023-04-06T04:40:34;13.82;;;6.30;;
8708;SDS011;4391;48.678;9.280;2023-04-06T04:43:01;11.87;;;5.87;;
8708;SDS011;4391;48.678;9.280;2023-04-06T04:45:28;14.02;;;6.30;;
8708;SDS011;4391;48.678;9.280;2023-04-06T04:47:55;14.27;;;6.50;;
8708;SDS011;4391;48.678;9.280;2023-04-06T04:50:23;13.07;;;5.80;;
8708;SDS011;4391;48.678;9.280;2023-04-06T04:52:50;13.35;;;6.18;;
8708;SDS011;4391;48.678;9.280;2023-04-06T04:55:17;12.87;;;6.17;;
8708;SDS011;4391;48.678;9.280;2023-04-06T04:57:44;12.93;;;6.20;;
8708;SDS011;4391;48.678;9.280;2023-04-06T05:00:11;13.63;;;6.28;;
8708;SDS011;4391;48.678;9.280;2023-04-06T05:02:39;12.77;;;5.78;;
8708;SDS011;4391;48.678;9.280;2023-04-06T05:05:06;15.38;;;6.13;;
8708;SDS011;4391;48.678;9.280;2023-04-06T05:07:35;15.00;;;6.50;;
8708;SDS011;4391;48.678;9.280;2023-04-06T05:10:02;15.43;;;6.03;;
8708;SDS011;4391;48.678;9.280;2023-04-06T05:12:30;17.05;;;6.60;;
8708;SDS011;4391;48.678;9.280;2023-04-06T05:14:57;13.10;;;6.22;;
8708;SDS011;4391;48.678;9.280;2023-04-06T05:17:23;13.55;;;6.20;;
8708;SDS011;4391;48.678;9.280;2023-04-06T05:19:51;14.37;;;6.23;;
8708;SDS011;4391;48.678;9.280;2023-04-06T05:22:18;14.55;;;6.40;;
8708;SDS011;4391;48.678;9.280;2023-04-06T05:24:46;15.98;;;6.22;;
8708;SDS011;4391;48.678;9.280;2023-04-06T05:27:13;14.10;;;6.43;;
8708;SDS011;4391;48.678;9.280;2023-04-06T05:29:40;14.85;;;6.97;;
8708;SDS011;4391;48.678;9.280;2023-04-06T05:32:07;21.43;;;7.13;;
8708;SDS011;4391;48.678;9.280;2023-04-06T05:34:34;14.77;;;6.43;;
8708;SDS011;4391;48.678;9.280;2023-04-06T05:37:01;17.48;;;7.05;;
8708;SDS011;4391;48.678;9.280;2023-04-06T05:39:27;17.70;;;6.80;;
8708;SDS011;4391;48.678;9.280;2023-04-06T05:41:56;17.58;;;6.88;;
8708;SDS011;4391;48.678;9.280;2023-04-06T05:44:23;18.33;;;7.23;;
8708;SDS011;4391;48.678;9.280;2023-04-06T05:46:50;18.20;;;8.48;;
8708;SDS011;4391;48.678;9.280;2023-04-06T05:49:17;20.50;;;9.85;;
8708;SDS011;4391;48.678;9.280;2023-04-06T05:51:44;31.63;;;13.25;;
8708;SDS011;4391;48.678;9.280;2023-04-06T05:54:10;30.27;;;12.38;;
8708;SDS011;4391;48.678;9.280;2023-04-06T05:56:38;24.23;;;8.83;;
8708;SDS011;4391;48.678;9.280;2023-04-06T05:59:06;20.67;;;8.68;;
8708;SDS011;4391;48.678;9.280;2023-04-06T06:01:33;20.02;;;8.23;;
8708;SDS011;4391;48.678;9.280;2023-04-06T06:04:01;17.42;;;7.78;;
8708;SDS011;4391;48.678;9.280;2023-04-06T06:06:28;19.98;;;8.35;;
8708;SDS011;4391;48.678;9.280;2023-04-06T06:08:56;16.80;;;7.43;;
8708;SDS011;4391;48.678;9.280;2023-04-06T06:11:24;12.88;;;6.63;;
8708;SDS011;4391;48.678;9.280;2023-04-06T06:13:51;16.55;;;6.82;;
8708;SDS011;4391;48.678;9.280;2023-04-06T06:16:19;13.68;;;7.00;;
8708;SDS011;4391;48.678;9.280;2023-04-06T06:18:46;16.58;;;7.72;;
8708;SDS011;4391;48.678;9.280;2023-04-06T06:21:13;15.33;;;7.63;;
8708;SDS011;4391;48.678;9.280;2023-04-06T06:23:42;15.25;;;6.75;;
8708;SDS011;4391;48.678;9.280;2023-04-06T06:26:09;16.52;;;7.60;;
8708;SDS011;4391;48.678;9.280;2023-04-06T06:28:36;16.95;;;8.45;;
8708;SDS011;4391;48.678;9.280;2023-04-06T06:31:03;16.25;;;6.70;;
8708;SDS011;4391;48.678;9.280;2023-04-06T06:33:31;15.23;;;7.50;;
8708;SDS011;4391;48.678;9.280;2023-04-06T06:35:58;12.90;;;7.07;;
8708;SDS011;4391;48.678;9.280;2023-04-06T06:38:25;13.32;;;6.97;;
8708;SDS011;4391;48.678;9.280;2023-04-06T06:40:52;15.68;;;7.43;;
8708;SDS011;4391;48.678;9.280;2023-04-06T06:43:19;13.43;;;6.85;;
8708;SDS011;4391;48.678;9.280;2023-04-06T06:45:46;15.77;;;7.33;;
8708;SDS011;4391;48.678;9.280;2023-04-06T06:48:13;16.65;;;6.82;;
8708;SDS011;4391;48.678;9.280;2023-04-06T06:50:41;14.15;;;6.90;;
8708;SDS011;4391;48.678;9.280;2023-04-06T06:53:08;14.90;;;6.72;;
8708;SDS011;4391;48.678;9.280;2023-04-06T06:55:36;11.68;;;6.90;;
8708;SDS011;4391;48.678;9.280;2023-04-06T06:58:03;14.37;;;6.90;;
8708;SDS011;4391;48.678;9.280;2023-04-06T07:00:31;17.67;;;7.45;;
8708;SDS011;4391;48.678;9.280;2023-04-06T07:02:58;16.63;;;7.75;;
8708;SDS011;4391;48.678;9.280;2023-04-06T07:05:25;15.27;;;7.90;;
8708;SDS011;4391;48.678;9.280;2023-04-06T07:07:53;14.63;;;7.30;;
8708;SDS011;4391;48.678;9.280;2023-04-06T07:10:20;13.43;;;7.53;;
8708;SDS011;4391;48.678;9.280;2023-04-06T07:12:47;15.25;;;7.30;;
8708;SDS011;4391;48.678;9.280;2023-04-06T07:15:14;18.00;;;8.32;;
8708;SDS011;4391;48.678;9.280;2023-04-06T07:17:42;16.77;;;7.57;;
8708;SDS011;4391;48.678;9.280;2023-04-06T07:20:10;12.05;;;6.88;;
8708;SDS011;4391;48.678;9.280;2023-04-06T07:22:37;14.30;;;7.00;;
8708;SDS011;4391;48.678;9.280;2023-04-06T07:25:06;13.77;;;6.78;;
8708;SDS011;4391;48.678;9.280;2023-04-06T07:27:33;13.07;;;6.53;;
8708;SDS011;4391;48.678;9.280;2023-04-06T07:30:00;11.95;;;6.40;;
8708;SDS011;4391;48.678;9.280;2023-04-06T07:32:27;12.40;;;6.75;;
8708;SDS011;4391;48.678;9.280;2023-04-06T07:34:55;11.57;;;6.53;;
8708;SDS011;4391;48.678;9.280;2023-04-06T07:37:23;14.05;;;6.90;;
8708;SDS011;4391;48.678;9.280;2023-04-06T07:39:50;12.43;;;6.60;;
8708;SDS011;4391;48.678;9.280;2023-04-06T07:42:18;12.75;;;6.40;;
8708;SDS011;4391;48.678;9.280;2023-04-06T07:44:45;12.98;;;6.85;;
8708;SDS011;4391;48.678;9.280;2023-04-06T07:47:12;12.50;;;6.50;;
8708;SDS011;4391;48.678;9.280;2023-04-06T07:49:39;12.98;;;7.50;;
8708;SDS011;4391;48.678;9.280;2023-04-06T07:52:06;12.27;;;7.05;;
8708;SDS011;4391;48.678;9.280;2023-04-06T07:54:33;11.85;;;6.57;;
8708;SDS011;4391;48.678;9.280;2023-04-06T07:57:00;13.05;;;6.68;;
8708;SDS011;4391;48.678;9.280;2023-04-06T07:59:28;13.37;;;7.00;;
8708;SDS011;4391;48.678;9.280;2023-04-06T08:01:55;13.13;;;6.60;;
8708;SDS011;4391;48.678;9.280;2023-04-06T08:04:22;12.05;;;6.53;;
8708;SDS011;4391;48.678;9.280;2023-04-06T08:06:48;14.00;;;7.07;;
8708;SDS011;4391;48.678;9.280;2023-04-06T08:09:15;12.00;;;6.13;;
8708;SDS011;4391;48.678;9.280;2023-04-06T08:11:42;14.10;;;6.90;;
8708;SDS011;4391;48.678;9.280;2023-04-06T08:14:11;14.15;;;6.45;;
8708;SDS011;4391;48.678;9.280;2023-04-06T08:16:39;12.68;;;6.93;;
8708;SDS011;4391;48.678;9.280;2023-04-06T08:19:06;13.93;;;6.63;;
8708;SDS011;4391;48.678;9.280;2023-04-06T08:21:34;12.25;;;6.75;;
8708;SDS011;4391;48.678;9.280;2023-04-06T08:24:01;11.80;;;6.73;;
8708;SDS011;4391;48.678;9.280;2023-04-06T08:26:28;13.60;;;6.20;;
8708;SDS011;4391;48.678;9.280;2023-04-06T08:28:55;13.52;;;6.30;;
8708;SDS011;4391;48.678;9.280;2023-04-06T08:31:22;20.85;;;6.60;;
8708;SDS011;4391;48.678;9.280;2023-04-06T08:33:50;11.35;;;6.28;;
8708;SDS011;4391;48.678;9.280;2023-04-06T08:36:17;14.27;;;6.97;;
8708;SDS011;4391;48.678;9.280;2023-04-06T08:38:47;12.23;;;6.30;;
8708;SDS011;4391;48.678;9.280;2023-04-06T08:41:15;13.65;;;6.93;;
8708;SDS011;4391;48.678;9.280;2023-04-06T08:43:43;12.88;;;6.53;;
8708;SDS011;4391;48.678;9.280;2023-04-06T08:46:12;12.65;;;7.00;;
8708;SDS011;4391;48.678;9.280;2023-04-06T08:48:40;15.70;;;6.93;;
8708;SDS011;4391;48.678;9.280;2023-04-06T08:51:09;12.75;;;6.32;;
8708;SDS011;4391;48.678;9.280;2023-04-06T08:53:38;11.75;;;6.45;;
8708;SDS011;4391;48.678;9.280;2023-04-06T08:56:05;14.40;;;6.72;;
8708;SDS011;4391;48.678;9.280;2023-04-06T08:58:34;12.48;;;6.65;;
8708;SDS011;4391;48.678;9.280;2023-04-06T09:01:05;14.67;;;7.00;;
8708;SDS011;4391;48.678;9.280;2023-04-06T09:03:35;12.63;;;6.57;;
8708;SDS011;4391;48.678;9.280;2023-04-06T09:06:04;13.88;;;7.13;;
8708;SDS011;4391;48.678;9.280;2023-04-06T09:08:34;13.35;;;7.00;;
8708;SDS011;4391;48.678;9.280;2023-04-06T09:11:01;12.38;;;6.57;;
8708;SDS011;4391;48.678;9.280;2023-04-06T09:13:29;12.83;;;6.97;;
8708;SDS011;4391;48.678;9.280;2023-04-06T09:16:00;11.82;;;6.47;;
8708;SDS011;4391;48.678;9.280;2023-04-06T09:18:28;12.00;;;6.55;;
8708;SDS011;4391;48.678;9.280;2023-04-06T09:20:59;13.20;;;6.80;;
8708;SDS011;4391;48.678;9.280;2023-04-06T09:23:26;13.05;;;6.97;;
8708;SDS011;4391;48.678;9.280;2023-04-06T09:26:05;13.17;;;6.60;;
8708;SDS011;4391;48.678;9.280;2023-04-06T09:28:45;13.90;;;6.93;;
8708;SDS011;4391;48.678;9.280;2023-04-06T09:31:13;11.75;;;6.88;;
8708;SDS011;4391;48.678;9.280;2023-04-06T09:33:41;11.63;;;6.40;;
8708;SDS011;4391;48.678;9.280;2023-04-06T09:36:10;14.50;;;7.40;;
8708;SDS011;4391;48.678;9.280;2023-04-06T09:38:50;13.40;;;7.27;;
8708;SDS011;4391;48.678;9.280;2023-04-06T09:41:21;12.80;;;6.63;;
8708;SDS011;4391;48.678;9.280;2023-04-06T09:43:50;12.45;;;6.18;;
8708;SDS011;4391;48.678;9.280;2023-04-06T09:46:17;11.02;;;6.32;;
8708;SDS011;4391;48.678;9.280;2023-04-06T09:48:47;12.98;;;6.30;;
8708;SDS011;4391;48.678;9.280;2023-04-06T09:51:16;11.53;;;6.73;;
8708;SDS011;4391;48.678;9.280;2023-04-06T09:53:45;12.10;;;5.95;;
8708;SDS011;4391;48.678;9.280;2023-04-06T09:56:19;11.48;;;6.05;;
8708;SDS011;4391;48.678;9.280;2023-04-06T09:58:52;11.85;;;5.80;;
8708;SDS011;4391;48.678;9.280;2023-04-06T10:01:23;12.00;;;6.68;;
8708;SDS011;4391;48.678;9.280;2023-04-06T10:03:55;12.57;;;6.80;;
8708;SDS011;4391;48.678;9.280;2023-04-06T10:06:28;15.93;;;5.88;;
8708;SDS011;4391;48.678;9.280;2023-04-06T10:09:00;13.02;;;5.68;;
8708;SDS011;4391;48.678;9.280;2023-04-06T10:11:31;9.48;;;4.97;;
8708;SDS011;4391;48.678;9.280;2023-04-06T10:13:58;10.00;;;5.32;;
8708;SDS011;4391;48.678;9.280;2023-04-06T10:16:25;10.60;;;5.10;;
8708;SDS011;4391;48.678;9.280;2023-04-06T10:18:55;9.18;;;5.38;;
8708;SDS011;4391;48.678;9.280;2023-04-06T10:21:28;9.60;;;5.30;;
8708;SDS011;4391;48.678;9.280;2023-04-06T10:23:58;7.95;;;4.60;;
8708;SDS011;4391;48.678;9.280;2023-04-06T10:26:26;8.57;;;3.95;;
8708;SDS011;4391;48.678;9.280;2023-04-06T10:28:54;9.73;;;4.60;;
8708;SDS011;4391;48.678;9.280;2023-04-06T10:31:24;11.48;;;6.18;;
8708;SDS011;4391;48.678;9.280;2023-04-06T10:33:55;8.80;;;4.80;;
8708;SDS011;4391;48.678;9.280;2023-04-06T10:36:23;10.90;;;4.80;;
8708;SDS011;4391;48.678;9.280;2023-04-06T10:38:55;8.07;;;4.15;;
8708;SDS011;4391;48.678;9.280;2023-04-06T10:41:24;8.33;;;4.77;;
8708;SDS011;4391;48.678;9.280;2023-04-06T10:44:00;7.95;;;5.07;;
8708;SDS011;4391;48.678;9.280;2023-04-06T10:46:28;9.68;;;4.55;;
8708;SDS011;4391;48.678;9.280;2023-04-06T10:48:56;8.18;;;4.72;;
8708;SDS011;4391;48.678;9.280;2023-04-06T10:51:25;10.57;;;5.68;;
8708;SDS011;4391;48.678;9.280;2023-04-06T10:53:53;9.20;;;4.77;;
8708;SDS011;4391;48.678;9.280;2023-04-06T10:56:22;7.57;;;3.85;;
8708;SDS011;4391;48.678;9.280;2023-04-06T10:58:53;8.73;;;4.07;;
8708;SDS011;4391;48.678;9.280;2023-04-06T11:01:23;9.63;;;4.65;;
8708;SDS011;4391;48.678;9.280;2023-04-06T11:03:53;5.88;;;3.15;;
8708;SDS011;4391;48.678;9.280;2023-04-06T11:06:21;8.07;;;3.67;;
8708;SDS011;4391;48.678;9.280;2023-04-06T11:08:49;7.65;;;3.80;;
8708;SDS011;4391;48.678;9.280;2023-04-06T11:11:16;7.60;;;3.60;;
8708;SDS011;4391;48.678;9.280;2023-04-06T11:13:46;11.65;;;3.80;;
8708;SDS011;4391;48.678;9.280;2023-04-06T11:16:15;7.18;;;3.72;;
8708;SDS011;4391;48.678;9.280;2023-04-06T11:18:54;7.17;;;3.70;;
8708;SDS011;4391;48.678;9.280;2023-04-06T11:21:31;7.10;;;3.75;;
8708;SDS011;4391;48.678;9.280;2023-04-06T11:24:06;8.40;;;3.63;;
8708;SDS011;4391;48.678;9.280;2023-04-06T11:26:41;5.57;;;3.28;;
8708;SDS011;4391;48.678;9.280;2023-04-06T11:29:10;6.30;;;3.38;;
8708;SDS011;4391;48.678;9.280;2023-04-06T11:31:41;7.60;;;3.70;;
8708;SDS011;4391;48.678;9.280;2023-04-06T11:34:11;7.35;;;3.78;;
8708;SDS011;4391;48.678;9.280;2023-04-06T11:36:41;6.80;;;3.70;;
8708;SDS011;4391;48.678;9.280;2023-04-06T11:39:09;7.10;;;3.47;;
8708;SDS011;4391;48.678;9.280;2023-04-06T11:41:36;6.45;;;3.75;;
8708;SDS011;4391;48.678;9.280;2023-04-06T11:44:03;7.70;;;4.17;;
8708;SDS011;4391;48.678;9.280;2023-04-06T11:46:32;7.57;;;4.37;;
8708;SDS011;4391;48.678;9.280;2023-04-06T11:48:59;6.95;;;3.72;;
8708;SDS011;4391;48.678;9.280;2023-04-06T11:51:29;7.80;;;4.07;;
8708;SDS011;4391;48.678;9.280;2023-04-06T11:53:55;8.93;;;4.10;;
8708;SDS011;4391;48.678;9.280;2023-04-06T11:56:23;7.75;;;4.32;;
8708;SDS011;4391;48.678;9.280;2023-04-06T11:58:51;6.37;;;3.40;;
8708;SDS011;4391;48.678;9.280;2023-04-06T12:01:19;6.80;;;3.80;;
8708;SDS011;4391;48.678;9.280;2023-04-06T12:03:46;7.93;;;4.20;;
8708;SDS011;4391;48.678;9.280;2023-04-06T12:06:13;7.53;;;4.13;;
8708;SDS011;4391;48.678;9.280;2023-04-06T12:08:41;8.27;;;3.97;;
8708;SDS011;4391;48.678;9.280;2023-04-06T12:11:09;7.32;;;4.25;;
8708;SDS011;4391;48.678;9.280;2023-04-06T12:13:36;9.02;;;3.90;;
8708;SDS011;4391;48.678;9.280;2023-04-06T12:16:03;7.40;;;3.60;;
8708;SDS011;4391;48.678;9.280;2023-04-06T12:18:31;7.23;;;4.10;;
8708;SDS011;4391;48.678;9.280;2023-04-06T12:20:58;6.80;;;3.38;;
8708;SDS011;4391;48.678;9.280;2023-04-06T12:23:25;6.93;;;3.42;;
8708;SDS011;4391;48.678;9.280;2023-04-06T12:25:53;6.95;;;3.83;;
8708;SDS011;4391;48.678;9.280;2023-04-06T12:28:20;8.07;;;3.33;;
8708;SDS011;4391;48.678;9.280;2023-04-06T12:30:48;7.00;;;3.22;;
8708;SDS011;4391;48.678;9.280;2023-04-06T12:33:16;5.77;;;2.80;;
8708;SDS011;4391;48.678;9.280;2023-04-06T12:35:43;5.03;;;2.40;;
8708;SDS011;4391;48.678;9.280;2023-04-06T12:38:09;5.63;;;2.10;;
8708;SDS011;4391;48.678;9.280;2023-04-06T12:40:37;6.72;;;2.90;;
8708;SDS011;4391;48.678;9.280;2023-04-06T12:43:06;6.30;;;2.70;;
8708;SDS011;4391;48.678;9.280;2023-04-06T12:45:33;7.00;;;3.03;;
8708;SDS011;4391;48.678;9.280;2023-04-06T12:48:00;6.60;;;3.20;;
8708;SDS011;4391;48.678;9.280;2023-04-06T12:50:27;6.47;;;2.97;;
8708;SDS011;4391;48.678;9.280;2023-04-06T12:52:54;6.03;;;2.80;;
8708;SDS011;4391;48.678;9.280;2023-04-06T12:55:24;6.13;;;3.25;;
8708;SDS011;4391;48.678;9.280;2023-04-06T12:57:51;5.45;;;3.05;;
8708;SDS011;4391;48.678;9.280;2023-04-06T13:00:20;6.03;;;2.95;;
8708;SDS011;4391;48.678;9.280;2023-04-06T13:02:47;5.50;;;3.20;;
8708;SDS011;4391;48.678;9.280;2023-04-06T13:05:15;6.80;;;3.97;;
8708;SDS011;4391;48.678;9.280;2023-04-06T13:07:44;7.20;;;3.25;;
8708;SDS011;4391;48.678;9.280;2023-04-06T13:10:12;7.23;;;3.23;;
8708;SDS011;4391;48.678;9.280;2023-04-06T13:12:38;5.95;;;2.95;;
8708;SDS011;4391;48.678;9.280;2023-04-06T13:15:06;6.20;;;3.20;;
8708;SDS011;4391;48.678;9.280;2023-04-06T13:17:34;6.05;;;3.67;;
8708;SDS011;4391;48.678;9.280;2023-04-06T13:20:03;5.95;;;3.38;;
8708;SDS011;4391;48.678;9.280;2023-04-06T13:22:31;6.50;;;3.20;;
8708;SDS011;4391;48.678;9.280;2023-04-06T13:24:58;5.47;;;3.38;;
8708;SDS011;4391;48.678;9.280;2023-04-06T13:27:30;6.50;;;3.30;;
8708;SDS011;4391;48.678;9.280;2023-04-06T13:29:58;6.00;;;3.20;;
8708;SDS011;4391;48.678;9.280;2023-04-06T13:32:25;7.07;;;3.80;;
8708;SDS011;4391;48.678;9.280;2023-04-06T13:34:55;7.93;;;3.67;;
8708;SDS011;4391;48.678;9.280;2023-04-06T13:37:23;6.25;;;3.78;;
8708;SDS011;4391;48.678;9.280;2023-04-06T13:39:50;5.43;;;2.97;;
8708;SDS011;4391;48.678;9.280;2023-04-06T13:42:17;7.13;;;3.47;;
8708;SDS011;4391;48.678;9.280;2023-04-06T13:44:44;6.60;;;3.55;;
8708;SDS011;4391;48.678;9.280;2023-04-06T13:47:11;6.77;;;3.60;;
8708;SDS011;4391;48.678;9.280;2023-04-06T13:49:40;6.40;;;3.03;;
8708;SDS011;4391;48.678;9.280;2023-04-06T13:52:08;5.93;;;3.15;;
8708;SDS011;4391;48.678;9.280;2023-04-06T13:54:36;7.00;;;3.17;;
8708;SDS011;4391;48.678;9.280;2023-04-06T13:57:02;8.45;;;3.55;;
8708;SDS011;4391;48.678;9.280;2023-04-06T13:59:31;6.82;;;3.50;;
8708;SDS011;4391;48.678;9.280;2023-04-06T14:01:58;6.10;;;3.37;;
8708;SDS011;4391;48.678;9.280;2023-04-06T14:04:25;5.85;;;3.05;;
8708;SDS011;4391;48.678;9.280;2023-04-06T14:06:52;5.75;;;3.25;;
8708;SDS011;4391;48.678;9.280;2023-04-06T14:09:20;7.35;;;3.80;;
8708;SDS011;4391;48.678;9.280;2023-04-06T14:11:48;6.68;;;3.42;;
8708;SDS011;4391;48.678;9.280;2023-04-06T14:14:15;8.33;;;3.60;;
8708;SDS011;4391;48.678;9.280;2023-04-06T14:16:42;7.35;;;3.47;;
8708;SDS011;4391;48.678;9.280;2023-04-06T14:19:10;8.05;;;3.83;;
8708;SDS011;4391;48.678;9.280;2023-04-06T14:21:37;6.88;;;3.58;;
8708;SDS011;4391;48.678;9.280;2023-04-06T14:24:05;9.32;;;3.03;;
8708;SDS011;4391;48.678;9.280;2023-04-06T14:26:34;7.13;;;3.50;;
8708;SDS011;4391;48.678;9.280;2023-04-06T14:29:02;5.90;;;3.03;;
8708;SDS011;4391;48.678;9.280;2023-04-06T14:31:29;6.47;;;2.92;;
8708;SDS011;4391;48.678;9.280;2023-04-06T14:33:56;9.88;;;3.85;;
8708;SDS011;4391;48.678;9.280;2023-04-06T14:36:23;6.38;;;3.00;;
8708;SDS011;4391;48.678;9.280;2023-04-06T14:38:52;6.80;;;3.10;;
8708;SDS011;4391;48.678;9.280;2023-04-06T14:41:19;8.80;;;3.28;;
8708;SDS011;4391;48.678;9.280;2023-04-06T14:43:50;6.28;;;2.88;;
8708;SDS011;4391;48.678;9.280;2023-04-06T14:46:17;6.35;;;3.33;;
8708;SDS011;4391;48.678;9.280;2023-04-06T14:48:44;7.65;;;3.28;;
8708;SDS011;4391;48.678;9.280;2023-04-06T14:51:11;7.30;;;2.97;;
8708;SDS011;4391;48.678;9.280;2023-04-06T14:53:38;6.68;;;3.00;;
8708;SDS011;4391;48.678;9.280;2023-04-06T14:56:05;8.60;;;3.33;;
8708;SDS011;4391;48.678;9.280;2023-04-06T14:58:32;6.93;;;2.72;;
8708;SDS011;4391;48.678;9.280;2023-04-06T15:01:01;7.43;;;3.10;;
8708;SDS011;4391;48.678;9.280;2023-04-06T15:03:28;8.07;;;3.10;;
8708;SDS011;4391;48.678;9.280;2023-04-06T15:05:56;7.28;;;3.17;;
8708;SDS011;4391;48.678;9.280;2023-04-06T15:08:23;7.03;;;3.40;;